Time;durP1;ratioP1;P1;durP2;ratioP2;P2;SDS_P1;SDS_P2;PMS_P1;PMS_P2;Temp;Humidity;BMP_temperature;BMP_pressure;BME280_temperature;BME280_humidity;BME280_pressure;Samples;Min_cycle;Max_cycle;Signal;HPM_P1;HPM_P2
2023/04/03 00:00:38;;;;;;;0.10;0.10;;;;;;;;;;4996333;28;20026;-76
2023/04/03 00:03:03;;;;;;;0.10;0.10;;;;;;;;;;5013725;28;20363;-77
2023/04/03 00:05:29;;;;;;;0.10;0.10;;;;;;;;;;5013591;28;20040;-76
2023/04/03 00:07:54;;;;;;;0.10;0.10;;;;;;;;;;5013740;28;20100;-76
2023/04/03 00:10:20;;;;;;;0.10;0.10;;;;;;;;;;5013679;28;20072;-78
2023/04/03 00:12:46;;;;;;;0.10;0.10;;;;;;;;;;5013488;28;20030;-77
2023/04/03 00:15:12;;;;;;;0.10;0.10;;;;;;;;;;4995946;28;20084;-77
2023/04/03 00:17:37;;;;;;;0.10;0.10;;;;;;;;;;4995993;28;20505;-77
2023/04/03 00:20:03;;;;;;;0.10;0.10;;;;;;;;;;5013435;28;20033;-79
2023/04/03 00:22:28;;;;;;;0.10;0.10;;;;;;;;;;5013413;28;20053;-80
2023/04/03 00:24:54;;;;;;;0.17;0.17;;;;;;;;;;5013489;28;20129;-75
2023/04/03 00:27:20;;;;;;;0.10;0.10;;;;;;;;;;5013328;28;20048;-75
2023/04/03 00:29:45;;;;;;;0.10;0.10;;;;;;;;;;5013421;28;20030;-75
2023/04/03 00:32:11;;;;;;;0.10;0.10;;;;;;;;;;4995590;28;20038;-76
2023/04/03 00:34:36;;;;;;;0.10;0.10;;;;;;;;;;4995697;28;20041;-75
2023/04/03 00:37:02;;;;;;;0.10;0.10;;;;;;;;;;5013155;28;20032;-76
2023/04/03 00:39:27;;;;;;;0.10;0.10;;;;;;;;;;5013479;28;20038;-76
2023/04/03 00:41:52;;;;;;;0.10;0.10;;;;;;;;;;5013452;28;20121;-75
2023/04/03 00:44:33;;;;;;;0.10;0.10;;;;;;;;;;5014458;28;20168;-75
2023/04/03 00:46:59;;;;;;;0.30;0.30;;;;;;;;;;5017475;28;20627;-80
2023/04/03 00:49:25;;;;;;;0.20;0.20;;;;;;;;;;5017018;28;20116;-81
2023/04/03 00:51:50;;;;;;;0.10;0.10;;;;;;;;;;5017012;28;20030;-79
2023/04/03 00:54:18;;;;;;;0.10;0.10;;;;;;;;;;5017038;28;20442;-79
2023/04/03 00:56:44;;;;;;;0.10;0.10;;;;;;;;;;4999365;28;20497;-79
2023/04/03 00:59:11;;;;;;;0.10;0.10;;;;;;;;;;4999234;28;20367;-79
2023/04/03 01:01:37;;;;;;;0.10;0.10;;;;;;;;;;4999373;28;20093;-79
2023/04/03 01:04:02;;;;;;;0.10;0.10;;;;;;;;;;5016590;28;20069;-79
2023/04/03 01:06:33;;;;;;;0.10;0.10;;;;;;;;;;4999334;28;20045;-79
2023/04/03 01:09:05;;;;;;;0.10;0.10;;;;;;;;;;4999425;28;20482;-79
2023/04/03 01:11:30;;;;;;;0.10;0.10;;;;;;;;;;5016865;28;20126;-76
2023/04/03 01:13:56;;;;;;;0.10;0.10;;;;;;;;;;5016795;28;20053;-77
2023/04/03 01:16:23;;;;;;;0.10;0.10;;;;;;;;;;4998634;28;20037;-77
2023/04/03 01:18:48;;;;;;;0.10;0.10;;;;;;;;;;5017679;28;20041;-77
2023/04/03 01:21:14;;;;;;;0.10;0.10;;;;;;;;;;5018764;28;20052;-77
2023/04/03 01:23:47;;;;;;;0.10;0.10;;;;;;;;;;5018033;28;20030;-78
2023/04/03 01:26:12;;;;;;;0.10;0.10;;;;;;;;;;4998901;28;20488;-79
2023/04/03 01:28:38;;;;;;;0.10;0.10;;;;;;;;;;4999075;28;20088;-80
2023/04/03 01:31:24;;;;;;;0.10;0.10;;;;;;;;;;4999064;28;20026;-80
2023/04/03 01:33:50;;;;;;;0.10;0.10;;;;;;;;;;4999170;28;20413;-79
2023/04/03 01:36:18;;;;;;;0.10;0.10;;;;;;;;;;5016356;28;20045;-80
2023/04/03 01:38:44;;;;;;;0.10;0.10;;;;;;;;;;4982828;28;20045;-80
2023/04/03 01:41:09;;;;;;;0.10;0.10;;;;;;;;;;5016362;28;20397;-76
2023/04/03 01:43:35;;;;;;;0.10;0.10;;;;;;;;;;4998639;28;20073;-75
2023/04/03 01:46:00;;;;;;;0.10;0.10;;;;;;;;;;4982134;28;20034;-75
2023/04/03 01:48:26;;;;;;;0.10;0.10;;;;;;;;;;4998536;28;20600;-76
2023/04/03 01:50:53;;;;;;;0.10;0.10;;;;;;;;;;4998308;28;20385;-75
2023/04/03 01:53:19;;;;;;;0.10;0.10;;;;;;;;;;5016024;28;20038;-75
2023/04/03 01:55:45;;;;;;;0.10;0.10;;;;;;;;;;4997397;28;20041;-76
2023/04/03 01:58:10;;;;;;;0.10;0.10;;;;;;;;;;4997734;28;20398;-76
2023/04/03 02:00:36;;;;;;;0.10;0.10;;;;;;;;;;5015963;28;20389;-76
2023/04/03 02:03:05;;;;;;;0.10;0.10;;;;;;;;;;4998520;28;20049;-79
2023/04/03 02:05:33;;;;;;;0.10;0.10;;;;;;;;;;5015064;28;20037;-79
2023/04/03 02:08:00;;;;;;;0.10;0.10;;;;;;;;;;5016102;28;20507;-79
2023/04/03 02:10:29;;;;;;;0.10;0.10;;;;;;;;;;4998291;28;20026;-78
2023/04/03 02:12:56;;;;;;;0.10;0.10;;;;;;;;;;4982334;28;20030;-78
2023/04/03 02:15:21;;;;;;;0.10;0.10;;;;;;;;;;4981599;28;20126;-76
2023/04/03 02:17:46;;;;;;;0.10;0.10;;;;;;;;;;5015517;28;20477;-78
2023/04/03 02:20:13;;;;;;;0.10;0.10;;;;;;;;;;5014184;28;20080;-77
2023/04/03 02:22:39;;;;;;;0.10;0.10;;;;;;;;;;5015565;28;20486;-78
2023/04/03 02:25:04;;;;;;;0.10;0.10;;;;;;;;;;5015480;28;20069;-77
2023/04/03 02:27:31;;;;;;;0.10;0.10;;;;;;;;;;5014148;28;20389;-77
2023/04/03 02:29:57;;;;;;;0.10;0.10;;;;;;;;;;5015096;28;20084;-77
2023/04/03 02:32:22;;;;;;;0.10;0.10;;;;;;;;;;4997814;28;20033;-78
2023/04/03 02:34:47;;;;;;;0.10;0.10;;;;;;;;;;4997540;28;20049;-78
2023/04/03 02:37:14;;;;;;;0.10;0.10;;;;;;;;;;4997608;28;20041;-78
2023/04/03 02:39:40;;;;;;;0.10;0.10;;;;;;;;;;5014333;28;20445;-76
2023/04/03 02:42:06;;;;;;;0.10;0.10;;;;;;;;;;4997605;28;20044;-77
2023/04/03 02:44:32;;;;;;;0.10;0.10;;;;;;;;;;4997275;28;20030;-76
2023/04/03 02:46:58;;;;;;;0.10;0.10;;;;;;;;;;5014758;28;20040;-76
2023/04/03 02:49:23;;;;;;;0.10;0.10;;;;;;;;;;5014702;28;20049;-76
2023/04/03 02:51:50;;;;;;;0.10;0.10;;;;;;;;;;4997450;28;20120;-77
2023/04/03 02:54:16;;;;;;;0.10;0.10;;;;;;;;;;5014829;28;20105;-77
2023/04/03 02:56:46;;;;;;;0.10;0.10;;;;;;;;;;4996631;28;20096;-76
2023/04/03 02:59:11;;;;;;;0.10;0.10;;;;;;;;;;4996920;28;20045;-76
2023/04/03 03:01:38;;;;;;;0.15;0.15;;;;;;;;;;4995876;28;20034;-76
2023/04/03 03:04:04;;;;;;;0.10;0.10;;;;;;;;;;4992567;28;20561;-77
2023/04/03 03:06:29;;;;;;;0.10;0.10;;;;;;;;;;5009314;28;20026;-76
2023/04/03 03:08:55;;;;;;;0.10;0.10;;;;;;;;;;4976497;28;20038;-76
2023/04/03 03:11:20;;;;;;;0.10;0.10;;;;;;;;;;5010857;28;20382;-77
2023/04/03 03:13:46;;;;;;;0.10;0.10;;;;;;;;;;4992837;28;20030;-76
2023/04/03 03:16:11;;;;;;;0.10;0.10;;;;;;;;;;5010833;28;20048;-76
2023/04/03 03:18:37;;;;;;;0.17;0.17;;;;;;;;;;5010746;28;20065;-76
2023/04/03 03:21:03;;;;;;;0.10;0.10;;;;;;;;;;5010213;28;20381;-80
2023/04/03 03:23:29;;;;;;;0.13;0.13;;;;;;;;;;5011223;28;20030;-76
2023/04/03 03:25:56;;;;;;;0.10;0.10;;;;;;;;;;4976396;28;20033;-78
2023/04/03 03:28:21;;;;;;;0.10;0.10;;;;;;;;;;4976941;28;20049;-77
2023/04/03 03:30:48;;;;;;;0.08;0.08;;;;;;;;;;4992875;28;20357;-77
2023/04/03 03:33:13;;;;;;;0.10;0.10;;;;;;;;;;5012109;28;20034;-76
2023/04/03 03:35:40;;;;;;;0.10;0.10;;;;;;;;;;5013237;28;20042;-76
2023/04/03 03:38:05;;;;;;;1.35;1.17;;;;;;;;;;4994064;28;20045;-79
2023/04/03 03:40:31;;;;;;;0.13;0.13;;;;;;;;;;4992720;28;20053;-78
2023/04/03 03:42:57;;;;;;;0.10;0.10;;;;;;;;;;4992997;28;20052;-76
2023/04/03 03:45:22;;;;;;;0.20;0.20;;;;;;;;;;4992507;28;20030;-80
2023/04/03 03:47:48;;;;;;;0.63;0.63;;;;;;;;;;5010275;28;20036;-76
2023/04/03 03:50:15;;;;;;;3.92;2.83;;;;;;;;;;4992233;28;20116;-76
2023/04/03 03:52:40;;;;;;;0.10;0.10;;;;;;;;;;4991527;28;20318;-77
2023/04/03 03:55:06;;;;;;;0.10;0.10;;;;;;;;;;5009793;28;20041;-77
2023/04/03 03:57:33;;;;;;;0.10;0.10;;;;;;;;;;4992440;28;20038;-80
2023/04/03 03:59:59;;;;;;;0.10;0.10;;;;;;;;;;4992539;28;20033;-80
2023/04/03 04:02:25;;;;;;;0.10;0.10;;;;;;;;;;4991438;28;20033;-80
2023/04/03 04:04:52;;;;;;;0.10;0.10;;;;;;;;;;4992370;28;20033;-85
2023/04/03 04:07:17;;;;;;;0.10;0.10;;;;;;;;;;4992094;28;20084;-80
2023/04/03 04:09:43;;;;;;;0.10;0.10;;;;;;;;;;4991451;28;20057;-79
2023/04/03 04:12:09;;;;;;;0.10;0.10;;;;;;;;;;4992250;28;20034;-80
2023/04/03 04:14:35;;;;;;;0.10;0.10;;;;;;;;;;4992007;28;20432;-79
2023/04/03 04:17:02;;;;;;;0.10;0.10;;;;;;;;;;4992539;28;20041;-80
2023/04/03 04:19:28;;;;;;;0.10;0.10;;;;;;;;;;4991569;28;20489;-76
2023/04/03 04:21:53;;;;;;;0.10;0.10;;;;;;;;;;4992629;28;20034;-79
2023/04/03 04:24:19;;;;;;;0.10;0.10;;;;;;;;;;4991164;28;20486;-77
2023/04/03 04:26:46;;;;;;;0.10;0.10;;;;;;;;;;4990667;28;20065;-76
2023/04/03 04:29:14;;;;;;;0.10;0.10;;;;;;;;;;4991646;28;20037;-76
2023/04/03 04:31:39;;;;;;;1.00;1.00;;;;;;;;;;4991981;28;20489;-76
2023/04/03 04:34:05;;;;;;;0.10;0.10;;;;;;;;;;5009717;28;20034;-78
2023/04/03 04:36:31;;;;;;;0.20;0.20;;;;;;;;;;5008235;28;20096;-77
2023/04/03 04:38:58;;;;;;;0.28;0.28;;;;;;;;;;4991890;28;20038;-87
2023/04/03 04:41:25;;;;;;;0.20;0.20;;;;;;;;;;4991871;28;20034;-85
2023/04/03 04:43:51;;;;;;;0.13;0.13;;;;;;;;;;4992161;28;20049;-86
2023/04/03 04:46:17;;;;;;;0.20;0.20;;;;;;;;;;4990902;28;20036;-78
2023/04/03 04:48:48;;;;;;;0.10;0.10;;;;;;;;;;4976493;28;20092;-80
2023/04/03 04:51:14;;;;;;;0.17;0.17;;;;;;;;;;4990870;28;20037;-78
2023/04/03 04:53:41;;;;;;;0.10;0.10;;;;;;;;;;4991301;28;20034;-78
2023/04/03 04:56:08;;;;;;;0.10;0.10;;;;;;;;;;5007572;28;20089;-80
2023/04/03 04:58:36;;;;;;;1.20;0.65;;;;;;;;;;4971871;28;20397;-82
2023/04/03 05:01:03;;;;;;;0.10;0.10;;;;;;;;;;4985712;28;20370;-78
2023/04/03 05:03:29;;;;;;;0.20;0.20;;;;;;;;;;4991186;28;20061;-76
2023/04/03 05:05:55;;;;;;;0.10;0.10;;;;;;;;;;4988926;28;20464;-77
2023/04/03 05:08:20;;;;;;;0.17;0.17;;;;;;;;;;4990646;28;20306;-77
2023/04/03 05:10:46;;;;;;;0.13;0.13;;;;;;;;;;4989119;28;20113;-76
2023/04/03 05:13:14;;;;;;;0.10;0.10;;;;;;;;;;4991263;28;20042;-76
2023/04/03 05:15:40;;;;;;;0.10;0.10;;;;;;;;;;4991167;28;20493;-76
2023/04/03 05:18:06;;;;;;;0.10;0.10;;;;;;;;;;4974408;28;20485;-77
2023/04/03 05:20:33;;;;;;;0.10;0.10;;;;;;;;;;5003607;28;20031;-84
2023/04/03 05:22:58;;;;;;;0.10;0.10;;;;;;;;;;4988786;28;20072;-83
2023/04/03 05:25:24;;;;;;;0.10;0.10;;;;;;;;;;5006124;28;20042;-79
2023/04/03 05:27:50;;;;;;;0.10;0.10;;;;;;;;;;4989438;28;20034;-78
2023/04/03 05:30:16;;;;;;;1.00;1.00;;;;;;;;;;4990508;28;20116;-80
2023/04/03 05:32:42;;;;;;;0.10;0.10;;;;;;;;;;4993355;28;20125;-75
2023/04/03 05:35:30;;;;;;;0.10;0.10;;;;;;;;;;5011722;28;20052;-84
2023/04/03 05:37:58;;;;;;;0.10;0.10;;;;;;;;;;4993641;28;20044;-80
2023/04/03 05:40:24;;;;;;;0.10;0.10;;;;;;;;;;4992734;28;20091;-83
2023/04/03 05:42:53;;;;;;;0.10;0.10;;;;;;;;;;5008813;28;20041;-84
2023/04/03 05:45:20;;;;;;;0.10;0.10;;;;;;;;;;4993513;28;20294;-81
2023/04/03 05:47:47;;;;;;;0.10;0.10;;;;;;;;;;4995351;28;20385;-78
2023/04/03 05:50:12;;;;;;;0.10;0.10;;;;;;;;;;4979579;28;20435;-78
2023/04/03 05:52:42;;;;;;;0.10;0.10;;;;;;;;;;4995650;28;20037;-79
2023/04/03 05:55:07;;;;;;;0.10;0.10;;;;;;;;;;4993785;28;20065;-78
2023/04/03 05:57:34;;;;;;;0.10;0.10;;;;;;;;;;4989906;28;20077;-78
2023/04/03 05:59:59;;;;;;;0.10;0.10;;;;;;;;;;5002687;28;20148;-77
2023/04/03 06:02:25;;;;;;;4.57;0.30;;;;;;;;;;4993183;28;20084;-76
2023/04/03 06:04:52;;;;;;;0.10;0.10;;;;;;;;;;4992829;28;20059;-78
2023/04/03 06:07:20;;;;;;;0.10;0.10;;;;;;;;;;4994388;28;20042;-78
2023/04/03 06:09:49;;;;;;;0.10;0.10;;;;;;;;;;4994459;28;20481;-77
2023/04/03 06:12:14;;;;;;;0.10;0.10;;;;;;;;;;4993663;28;20029;-78
2023/04/03 06:14:40;;;;;;;1.00;1.00;;;;;;;;;;5011890;28;20520;-78
2023/04/03 06:17:06;;;;;;;0.10;0.10;;;;;;;;;;5012237;28;20117;-78
2023/04/03 06:19:31;;;;;;;0.10;0.10;;;;;;;;;;5011740;28;20029;-77
2023/04/03 06:21:57;;;;;;;0.10;0.10;;;;;;;;;;5007493;28;20422;-76
2023/04/03 06:24:24;;;;;;;0.10;0.10;;;;;;;;;;4992926;28;20038;-76
2023/04/03 06:26:51;;;;;;;0.10;0.10;;;;;;;;;;5011575;28;20064;-77
2023/04/03 06:29:16;;;;;;;0.10;0.10;;;;;;;;;;5011451;28;20438;-76
2023/04/03 06:31:42;;;;;;;0.10;0.10;;;;;;;;;;5011608;28;20065;-76
2023/04/03 06:34:08;;;;;;;3.10;1.65;;;;;;;;;;5011293;28;20366;-77
2023/04/03 06:36:34;;;;;;;0.20;0.20;;;;;;;;;;5010165;28;20125;-78
2023/04/03 06:39:00;;;;;;;0.10;0.10;;;;;;;;;;5011564;28;20030;-76
2023/04/03 06:41:26;;;;;;;0.13;0.13;;;;;;;;;;5010815;28;20038;-76
2023/04/03 06:43:51;;;;;;;0.10;0.10;;;;;;;;;;5010982;28;20034;-78
2023/04/03 06:46:18;;;;;;;0.20;0.20;;;;;;;;;;4976915;28;20169;-81
2023/04/03 06:48:44;;;;;;;0.10;0.10;;;;;;;;;;4993661;28;20040;-78
2023/04/03 06:51:22;;;;;;;0.10;0.10;;;;;;;;;;5008587;28;20386;-82
2023/04/03 06:53:48;;;;;;;0.20;0.20;;;;;;;;;;4993186;28;20104;-80
2023/04/03 06:56:14;;;;;;;0.10;0.10;;;;;;;;;;5011222;28;20034;-83
2023/04/03 06:58:41;;;;;;;0.10;0.10;;;;;;;;;;5009285;28;20320;-79
2023/04/03 07:01:07;;;;;;;0.10;0.10;;;;;;;;;;4992939;28;20371;-80
2023/04/03 07:03:32;;;;;;;0.20;0.20;;;;;;;;;;4993034;28;20076;-78
2023/04/03 07:05:58;;;;;;;0.10;0.10;;;;;;;;;;5010014;28;20030;-81
2023/04/03 07:08:25;;;;;;;0.10;0.10;;;;;;;;;;5011278;28;20042;-81
2023/04/03 07:10:51;;;;;;;0.10;0.10;;;;;;;;;;4992815;28;20026;-77
2023/04/03 07:13:16;;;;;;;0.30;0.30;;;;;;;;;;4993291;28;20037;-77
2023/04/03 07:15:42;;;;;;;0.10;0.10;;;;;;;;;;5010991;28;20462;-82
2023/04/03 07:18:07;;;;;;;0.20;0.20;;;;;;;;;;4992783;28;20057;-80
2023/04/03 07:20:33;;;;;;;0.10;0.10;;;;;;;;;;5007557;28;20029;-80
2023/04/03 07:22:59;;;;;;;0.20;0.20;;;;;;;;;;4984209;28;20061;-79
2023/04/03 07:25:25;;;;;;;0.10;0.10;;;;;;;;;;4992789;28;20383;-78
2023/04/03 07:27:50;;;;;;;0.20;0.20;;;;;;;;;;5010724;28;20091;-78
2023/04/03 07:30:16;;;;;;;0.28;0.28;;;;;;;;;;5010561;28;20033;-81
2023/04/03 07:32:41;;;;;;;0.30;0.30;;;;;;;;;;5010550;28;20072;-79
2023/04/03 07:35:07;;;;;;;0.20;0.20;;;;;;;;;;5010092;28;20488;-78
2023/04/03 07:37:32;;;;;;;0.20;0.20;;;;;;;;;;4992792;28;20038;-78
2023/04/03 07:39:58;;;;;;;0.20;0.20;;;;;;;;;;5010348;28;20492;-76
2023/04/03 07:42:26;;;;;;;0.20;0.20;;;;;;;;;;5010719;28;20029;-76
2023/04/03 07:44:51;;;;;;;0.20;0.20;;;;;;;;;;5010512;28;20077;-78
2023/04/03 07:47:17;;;;;;;0.20;0.20;;;;;;;;;;4992305;28;20139;-76
2023/04/03 07:49:43;;;;;;;0.20;0.20;;;;;;;;;;4992438;28;20026;-77
2023/04/03 07:52:09;;;;;;;0.20;0.20;;;;;;;;;;5010373;28;20034;-85
2023/04/03 07:54:35;;;;;;;0.20;0.20;;;;;;;;;;5009569;28;20034;-76
2023/04/03 07:57:01;;;;;;;0.28;0.28;;;;;;;;;;4992746;28;20501;-82
2023/04/03 07:59:26;;;;;;;0.20;0.20;;;;;;;;;;4993088;28;20038;-78
2023/04/03 08:01:52;;;;;;;0.20;0.20;;;;;;;;;;4994178;28;20473;-77
2023/04/03 08:04:17;;;;;;;0.20;0.20;;;;;;;;;;4993834;28;20155;-82
2023/04/03 08:06:43;;;;;;;0.20;0.20;;;;;;;;;;4993151;28;20061;-79
2023/04/03 08:09:08;;;;;;;0.20;0.20;;;;;;;;;;5009839;28;20076;-80
2023/04/03 08:11:36;;;;;;;0.20;0.20;;;;;;;;;;5010551;28;20418;-79
2023/04/03 08:14:02;;;;;;;0.20;0.20;;;;;;;;;;4992014;28;20049;-73
2023/04/03 08:16:27;;;;;;;0.20;0.20;;;;;;;;;;4991404;28;20124;-74
2023/04/03 08:18:53;;;;;;;0.20;0.20;;;;;;;;;;4990079;28;20546;-73
2023/04/03 08:21:19;;;;;;;0.20;0.20;;;;;;;;;;4990092;28;20039;-73
2023/04/03 08:23:47;;;;;;;0.20;0.20;;;;;;;;;;5001140;28;20121;-73
2023/04/03 08:26:14;;;;;;;0.20;0.20;;;;;;;;;;5004284;28;20053;-75
2023/04/03 08:28:40;;;;;;;0.20;0.20;;;;;;;;;;5009705;28;20033;-74
2023/04/03 08:31:06;;;;;;;0.20;0.20;;;;;;;;;;4991767;28;20029;-73
2023/04/03 08:33:33;;;;;;;0.20;0.20;;;;;;;;;;5009649;28;20080;-74
2023/04/03 08:35:58;;;;;;;0.20;0.20;;;;;;;;;;5009618;28;20045;-74
2023/04/03 08:38:24;;;;;;;0.30;0.30;;;;;;;;;;4990876;28;20042;-73
2023/04/03 08:40:59;;;;;;;0.20;0.20;;;;;;;;;;5009993;28;20026;-73
2023/04/03 08:43:40;;;;;;;0.28;0.28;;;;;;;;;;5009284;28;20406;-73
2023/04/03 08:46:06;;;;;;;0.20;0.20;;;;;;;;;;5009337;28;20034;-74
2023/04/03 08:48:36;;;;;;;0.20;0.20;;;;;;;;;;4991876;28;20061;-74
2023/04/03 08:51:11;;;;;;;0.38;0.38;;;;;;;;;;4991901;28;20072;-75
2023/04/03 08:53:39;;;;;;;0.22;0.22;;;;;;;;;;5003359;28;20031;-73
2023/04/03 08:56:08;;;;;;;0.63;0.63;;;;;;;;;;4990905;28;20056;-74
2023/04/03 08:58:41;;;;;;;0.20;0.20;;;;;;;;;;5009806;28;20065;-74
2023/04/03 09:01:21;;;;;;;0.63;0.60;;;;;;;;;;5009250;28;20363;-74
2023/04/03 09:03:46;;;;;;;0.20;0.20;;;;;;;;;;5009202;28;20061;-73
2023/04/03 09:06:23;;;;;;;0.20;0.20;;;;;;;;;;5012707;28;20408;-73
2023/04/03 09:09:08;;;;;;;0.20;0.20;;;;;;;;;;4995707;28;20443;-73
2023/04/03 09:11:42;;;;;;;0.20;0.20;;;;;;;;;;5012888;28;20046;-73
2023/04/03 09:14:15;;;;;;;0.20;0.20;;;;;;;;;;5013523;28;20041;-74
2023/04/03 09:16:52;;;;;;;0.20;0.20;;;;;;;;;;5013231;28;20081;-73
2023/04/03 09:19:30;;;;;;;0.20;0.20;;;;;;;;;;5012659;28;20535;-75
2023/04/03 09:22:01;;;;;;;0.30;0.30;;;;;;;;;;5013116;28;20042;-75
2023/04/03 09:24:27;;;;;;;0.20;0.20;;;;;;;;;;4995254;28;20370;-74
2023/04/03 09:26:59;;;;;;;0.28;0.28;;;;;;;;;;5012888;28;20120;-74
2023/04/03 09:29:25;;;;;;;0.15;0.15;;;;;;;;;;5012547;28;20061;-74
2023/04/03 09:31:55;;;;;;;0.50;0.50;;;;;;;;;;5012745;28;20061;-73
2023/04/03 09:34:23;;;;;;;0.30;0.30;;;;;;;;;;5012483;28;20109;-75
2023/04/03 09:36:50;;;;;;;0.20;0.20;;;;;;;;;;5012279;28;20066;-73
2023/04/03 09:39:16;;;;;;;0.30;0.30;;;;;;;;;;5012299;28;20033;-75
2023/04/03 09:41:54;;;;;;;0.40;0.40;;;;;;;;;;5012809;28;20030;-74
2023/04/03 09:44:21;;;;;;;0.20;0.20;;;;;;;;;;5012374;28;20113;-74
2023/04/03 09:46:46;;;;;;;0.20;0.20;;;;;;;;;;5011367;28;20056;-72
2023/04/03 09:49:12;;;;;;;0.25;0.25;;;;;;;;;;4978163;28;20034;-73
2023/04/03 09:51:38;;;;;;;0.17;0.17;;;;;;;;;;4992085;28;20030;-73
2023/04/03 09:54:22;;;;;;;0.20;0.20;;;;;;;;;;5004641;28;20108;-73
2023/04/03 09:56:51;;;;;;;0.20;0.20;;;;;;;;;;4978106;28;20061;-72
2023/04/03 09:59:16;;;;;;;;;;;;;;;;;;4978277;28;20385;-73
2023/04/03 10:01:43;;;;;;;0.20;0.20;;;;;;;;;;4994730;28;19913;-73
2023/04/03 10:04:11;;;;;;;0.20;0.20;;;;;;;;;;5011159;28;20575;-72
2023/04/03 10:06:43;;;;;;;0.20;0.20;;;;;;;;;;4986068;28;20482;-73
2023/04/03 10:09:20;;;;;;;0.20;0.20;;;;;;;;;;4995142;28;20029;-74
2023/04/03 10:12:01;;;;;;;0.40;0.40;;;;;;;;;;5006670;28;20044;-73
2023/04/03 10:14:27;;;;;;;0.20;0.20;;;;;;;;;;5011816;28;20052;-73
2023/04/03 10:16:59;;;;;;;0.20;0.20;;;;;;;;;;4993247;28;20025;-73
2023/04/03 10:19:32;;;;;;;0.57;0.57;;;;;;;;;;5010631;28;20030;-73
2023/04/03 10:22:18;;;;;;;0.20;0.20;;;;;;;;;;5009779;28;20033;-73
2023/04/03 10:25:00;;;;;;;0.20;0.20;;;;;;;;;;4965428;28;20042;-73
2023/04/03 10:27:25;;;;;;;0.20;0.20;;;;;;;;;;5009998;28;20052;-73
2023/04/03 10:29:55;;;;;;;0.20;0.20;;;;;;;;;;4988740;28;20880;-75
2023/04/03 10:32:32;;;;;;;0.28;0.28;;;;;;;;;;4996219;28;20034;-73
2023/04/03 10:35:18;;;;;;;0.30;0.30;;;;;;;;;;4999333;28;20084;-74
2023/04/03 10:37:57;;;;;;;0.20;0.20;;;;;;;;;;4986661;28;20065;-73
2023/04/03 10:40:41;;;;;;;0.25;0.25;;;;;;;;;;4968247;28;20046;-73
2023/04/03 10:43:17;;;;;;;0.20;0.20;;;;;;;;;;4996120;28;20049;-73
2023/04/03 10:46:01;;;;;;;0.20;0.20;;;;;;;;;;4986932;28;20468;-73
2023/04/03 10:48:36;;;;;;;0.20;0.20;;;;;;;;;;4978898;28;20097;-73
2023/04/03 10:51:20;;;;;;;0.32;0.22;;;;;;;;;;4988502;28;20401;-74
2023/04/03 10:53:57;;;;;;;0.20;0.20;;;;;;;;;;4982717;28;20524;-73
2023/04/03 10:56:32;;;;;;;0.20;0.20;;;;;;;;;;4955989;28;20050;-73
2023/04/03 10:59:12;;;;;;;0.20;0.20;;;;;;;;;;4994307;28;20034;-74
2023/04/03 11:01:40;;;;;;;0.20;0.20;;;;;;;;;;4980435;28;20109;-74
2023/04/03 11:04:05;;;;;;;0.20;0.20;;;;;;;;;;4988577;28;20102;-74
2023/04/03 11:06:41;;;;;;;0.20;0.20;;;;;;;;;;4997819;28;20141;-74
2023/04/03 11:09:25;;;;;;;0.20;0.20;;;;;;;;;;4988588;28;20129;-74
2023/04/03 11:11:53;;;;;;;0.30;0.30;;;;;;;;;;4971519;28;20100;-74
2023/04/03 11:14:29;;;;;;;0.25;0.25;;;;;;;;;;4988561;28;20116;-73
2023/04/03 11:17:06;;;;;;;0.22;0.22;;;;;;;;;;4971556;28;20046;-73
2023/04/03 11:19:32;;;;;;;0.20;0.20;;;;;;;;;;4989357;28;20042;-73
2023/04/03 11:22:00;;;;;;;0.20;0.20;;;;;;;;;;4988931;28;20061;-73
2023/04/03 11:24:28;;;;;;;0.30;0.30;;;;;;;;;;4971449;28;20042;-73
2023/04/03 11:26:54;;;;;;;0.20;0.20;;;;;;;;;;4971359;28;20092;-74
2023/04/03 11:29:23;;;;;;;0.20;0.20;;;;;;;;;;4971061;28;20485;-73
2023/04/03 11:32:08;;;;;;;0.20;0.20;;;;;;;;;;4989379;28;20046;-73
2023/04/03 11:34:38;;;;;;;0.10;0.10;;;;;;;;;;4980483;28;20404;-75
2023/04/03 11:37:10;;;;;;;0.20;0.20;;;;;;;;;;4970021;28;20867;-74
2023/04/03 11:39:40;;;;;;;0.20;0.20;;;;;;;;;;4986756;28;20097;-74
2023/04/03 11:42:25;;;;;;;0.20;0.20;;;;;;;;;;4969549;28;20430;-74
2023/04/03 11:44:50;;;;;;;0.20;0.20;;;;;;;;;;4987761;28;20112;-74
2023/04/03 11:47:35;;;;;;;0.20;0.20;;;;;;;;;;4987671;28;20050;-74
2023/04/03 11:50:02;;;;;;;0.20;0.20;;;;;;;;;;4989176;28;20038;-74
2023/04/03 11:52:40;;;;;;;0.20;0.20;;;;;;;;;;4970853;28;20041;-74
2023/04/03 11:55:21;;;;;;;0.20;0.20;;;;;;;;;;4987919;28;20120;-74
2023/04/03 11:57:46;;;;;;;0.20;0.20;;;;;;;;;;4975896;28;20089;-74
2023/04/03 12:00:31;;;;;;;0.20;0.20;;;;;;;;;;4994139;28;20076;-74
2023/04/03 12:02:57;;;;;;;0.30;0.30;;;;;;;;;;4970164;28;20038;-74
2023/04/03 12:05:29;;;;;;;0.20;0.20;;;;;;;;;;4970412;28;20034;-75
2023/04/03 12:08:13;;;;;;;0.20;0.20;;;;;;;;;;4954492;28;20038;-73
2023/04/03 12:10:39;;;;;;;0.20;0.20;;;;;;;;;;4990695;28;20059;-73
2023/04/03 12:13:16;;;;;;;0.20;0.20;;;;;;;;;;4996096;28;20113;-74
2023/04/03 12:15:46;;;;;;;0.30;0.30;;;;;;;;;;4953921;28;20045;-73
2023/04/03 12:18:30;;;;;;;0.20;0.20;;;;;;;;;;4970631;28;20038;-73
2023/04/03 12:20:56;;;;;;;0.20;0.20;;;;;;;;;;4987947;28;20046;-73
2023/04/03 12:23:24;;;;;;;0.20;0.20;;;;;;;;;;4971361;28;20772;-74
2023/04/03 12:25:51;;;;;;;0.20;0.20;;;;;;;;;;4988203;28;20096;-73
2023/04/03 12:28:16;;;;;;;0.20;0.20;;;;;;;;;;4970288;28;20478;-72
2023/04/03 12:30:42;;;;;;;0.20;0.20;;;;;;;;;;4992639;28;21364;-73
2023/04/03 12:33:08;;;;;;;0.20;0.20;;;;;;;;;;4989685;28;20060;-74
2023/04/03 12:35:36;;;;;;;0.20;0.20;;;;;;;;;;5002602;28;20396;-73
2023/04/03 12:38:17;;;;;;;0.20;0.20;;;;;;;;;;4987188;28;20489;-72
2023/04/03 12:40:42;;;;;;;0.20;0.20;;;;;;;;;;5010486;28;20061;-71
2023/04/03 12:43:17;;;;;;;0.30;0.30;;;;;;;;;;5010782;28;20038;-71
2023/04/03 12:45:46;;;;;;;0.90;0.73;;;;;;;;;;5011739;28;20547;-71
2023/04/03 12:48:13;;;;;;;0.20;0.20;;;;;;;;;;5012278;28;20079;-71
2023/04/03 12:50:40;;;;;;;0.30;0.30;;;;;;;;;;5012757;28;20048;-71
2023/04/03 12:53:13;;;;;;;0.20;0.20;;;;;;;;;;5011665;28;20492;-71
2023/04/03 12:55:38;;;;;;;0.20;0.20;;;;;;;;;;4993110;28;20041;-72
2023/04/03 12:58:36;;;;;;;0.88;0.80;;;;;;;;;;5010881;28;20524;-73
2023/04/03 13:01:13;;;;;;;0.20;0.20;;;;;;;;;;4945415;28;20149;-72
2023/04/03 13:03:40;;;;;;;0.28;0.28;;;;;;;;;;4992189;28;20044;-72
2023/04/03 13:06:05;;;;;;;0.22;0.22;;;;;;;;;;5009600;28;20048;-72
2023/04/03 13:08:32;;;;;;;0.20;0.20;;;;;;;;;;4992741;28;20038;-73
2023/04/03 13:11:02;;;;;;;0.20;0.20;;;;;;;;;;4993454;28;20042;-73
2023/04/03 13:13:28;;;;;;;0.20;0.20;;;;;;;;;;5011760;28;20042;-72
2023/04/03 13:15:54;;;;;;;0.20;0.20;;;;;;;;;;5010944;28;20532;-73
2023/04/03 13:18:23;;;;;;;0.20;0.20;;;;;;;;;;5006267;28;20481;-72
2023/04/03 13:20:49;;;;;;;0.22;0.22;;;;;;;;;;5012897;28;20362;-71
2023/04/03 13:23:17;;;;;;;0.10;0.10;;;;;;;;;;5012500;28;20101;-73
2023/04/03 13:25:45;;;;;;;0.20;0.20;;;;;;;;;;5012576;28;20117;-74
2023/04/03 13:28:12;;;;;;;0.20;0.20;;;;;;;;;;5012847;28;20030;-72
2023/04/03 13:30:38;;;;;;;0.20;0.20;;;;;;;;;;4994747;28;20033;-73
2023/04/03 13:33:05;;;;;;;0.20;0.20;;;;;;;;;;5012469;28;20029;-73
2023/04/03 13:35:33;;;;;;;0.20;0.20;;;;;;;;;;5012037;28;20045;-73
2023/04/03 13:38:00;;;;;;;0.20;0.20;;;;;;;;;;4978773;28;20458;-72
2023/04/03 13:40:26;;;;;;;0.20;0.20;;;;;;;;;;4994779;28;20045;-73
2023/04/03 13:43:00;;;;;;;0.20;0.20;;;;;;;;;;5012566;28;20554;-73
2023/04/03 13:45:30;;;;;;;0.30;0.30;;;;;;;;;;5012684;28;20042;-73
2023/04/03 13:48:15;;;;;;;0.20;0.20;;;;;;;;;;5012272;28;20038;-72
2023/04/03 13:50:59;;;;;;;0.20;0.20;;;;;;;;;;5004820;28;20572;-73
2023/04/03 13:53:29;;;;;;;0.20;0.20;;;;;;;;;;4992167;28;20038;-71
2023/04/03 13:56:03;;;;;;;0.20;0.20;;;;;;;;;;4992364;28;20070;-74
2023/04/03 13:58:30;;;;;;;0.20;0.20;;;;;;;;;;5006197;28;20038;-74
2023/04/03 14:01:10;;;;;;;0.20;0.20;;;;;;;;;;5008221;28;20030;-74
2023/04/03 14:03:39;;;;;;;0.20;0.20;;;;;;;;;;5012049;28;20596;-72
2023/04/03 14:06:05;;;;;;;0.38;0.35;;;;;;;;;;5011920;28;20033;-73
2023/04/03 14:08:31;;;;;;;0.20;0.20;;;;;;;;;;5012267;28;20029;-72
2023/04/03 14:11:00;;;;;;;0.10;0.10;;;;;;;;;;5008070;28;20172;-73
2023/04/03 14:13:25;;;;;;;0.20;0.20;;;;;;;;;;4988697;28;20030;-72
2023/04/03 14:15:51;;;;;;;0.20;0.20;;;;;;;;;;5004130;28;20096;-73
2023/04/03 14:18:18;;;;;;;0.10;0.10;;;;;;;;;;4994251;28;20030;-74
2023/04/03 14:20:43;;;;;;;0.20;0.20;;;;;;;;;;5011817;28;20545;-73
2023/04/03 14:23:09;;;;;;;0.20;0.20;;;;;;;;;;5009261;28;20045;-73
2023/04/03 14:25:35;;;;;;;0.20;0.20;;;;;;;;;;5010789;28;20030;-72
2023/04/03 14:28:01;;;;;;;0.63;0.63;;;;;;;;;;5011662;28;20424;-72
2023/04/03 14:30:26;;;;;;;0.20;0.20;;;;;;;;;;5011529;28;20033;-72
2023/04/03 14:32:52;;;;;;;0.30;0.30;;;;;;;;;;5010154;28;20048;-73
2023/04/03 14:35:18;;;;;;;0.20;0.20;;;;;;;;;;5009882;28;20041;-73
2023/04/03 14:37:44;;;;;;;0.20;0.20;;;;;;;;;;5011398;28;20038;-72
2023/04/03 14:40:13;;;;;;;0.20;0.20;;;;;;;;;;5011391;28;20172;-72
2023/04/03 14:42:38;;;;;;;0.30;0.30;;;;;;;;;;5011292;28;20474;-73
2023/04/03 14:45:06;;;;;;;0.30;0.30;;;;;;;;;;5011087;28;20107;-73
2023/04/03 14:47:32;;;;;;;0.25;0.25;;;;;;;;;;4993982;28;20073;-73
2023/04/03 14:50:00;;;;;;;0.20;0.20;;;;;;;;;;5010962;28;20512;-74